Aérodrome :







RETROUVEZ-NOUS SUR...

 
LOGIN :

S'inscrire | Disclaimer

   EN    FR    IT 

 









Légende :    VFR   VFR Marginal   IFR   IFR Intensif   IFR Très Intensif
Visi : 
Plafond : 
>= 8 km
>= 3000ft
5 à 8 km
1000 à 3000 ft
1500m à 5 km
500 à 1000 ft
800 à 1500m
200 à 500 ft
< 800m
< 200 ft
Symboles :   Orages  Brouillard  Fortes neiges  Fortes précipitations  Vent > 20 kt






- Altitude de l'aérodrome : 334 ft
- AEROPORT FERMÉ.


KCWN - White Mountain

DERNIER METAR :
  • 021558Z AUTO 10006KT 10SM CLR 24/11 A3021 RMK AO2 SLP041 T02390108 PWINO $

METARs EXPIRÉS :
  • 021458Z AUTO 00000KT 10SM CLR 21/11 A3021 RMK AO2 SLP044 T02060114 52008 PWINO $
  • 021358Z AUTO 02004KT 10SM CLR 18/13 A3020 RMK AO2 SLP044 T01840125 PWINO $

TAF N/A



MET'MAP, la Météo Aéronautique d'un coup d'oeil ! - Copyright ORBIFLY Décembre 2007 - Disclaimer

ORBIFLY MET'MAP TEAM :

Programmation & Développement : Alexandra Zaïnal
Sur une idée originale de : Baudouin d'Aumeries
Assistance à la programmation : Marc-Olivier Méhu
Soutien technique & logistique : Manuel Goepfert

Contact : metmap@orbifly.com




SOURCES & CREDITS :

   NOAA